Time;durP1;ratioP1;P1;durP2;ratioP2;P2;SDS_P1;SDS_P2;PMS_P1;PMS_P2;Temp;Humidity;BMP_temperature;BMP_pressure;BME280_temperature;BME280_humidity;BME280_pressure;Samples;Min_cycle;Max_cycle;Signal;HPM_P1;HPM_P2
2021/01/20 00:01:42;;;;;;;4.40;3.05;;;0.30;99.90;;;;;;5091304;28;20040;-69
2021/01/20 00:04:08;;;;;;;4.45;3.08;;;0.30;99.90;;;;;;5090901;28;20031;-68
2021/01/20 00:06:33;;;;;;;5.22;3.30;;;0.20;99.90;;;;;;5091452;28;20473;-69
2021/01/20 00:08:59;;;;;;;5.30;3.55;;;0.20;99.90;;;;;;5091263;28;20133;-70
2021/01/20 00:11:25;;;;;;;6.28;3.30;;;0.10;99.90;;;;;;5091567;28;20020;-70
2021/01/20 00:13:53;;;;;;;4.78;3.55;;;0.10;99.90;;;;;;5094523;28;20043;-71
2021/01/20 00:16:19;;;;;;;4.65;3.40;;;0.00;99.90;;;;;;5095064;28;20052;-70
2021/01/20 00:18:45;;;;;;;5.78;3.72;;;-0.10;99.90;;;;;;5095727;28;20105;-70
2021/01/20 00:21:10;;;;;;;6.65;4.13;;;-0.10;99.90;;;;;;5095494;28;20030;-70
2021/01/20 00:23:36;;;;;;;7.57;4.18;;;-0.10;99.90;;;;;;5094812;28;20158;-70
2021/01/20 00:26:01;;;;;;;5.97;3.58;;;-0.10;99.90;;;;;;5095215;28;20085;-70
2021/01/20 00:28:27;;;;;;;6.93;4.07;;;-0.10;99.90;;;;;;5095539;28;20153;-71
2021/01/20 00:30:56;;;;;;;5.55;4.00;;;-0.20;99.90;;;;;;5077125;28;20020;-71
2021/01/20 00:33:22;;;;;;;5.35;3.90;;;-0.20;99.90;;;;;;5076600;28;20508;-70
2021/01/20 00:35:48;;;;;;;4.75;3.65;;;-0.10;99.90;;;;;;5095741;28;20561;-69
2021/01/20 00:38:13;;;;;;;4.93;3.53;;;-0.20;99.90;;;;;;5095314;28;20039;-68
2021/01/20 00:40:39;;;;;;;3.70;3.25;;;-0.20;99.90;;;;;;5094707;28;20024;-69
2021/01/20 00:43:05;;;;;;;8.18;3.90;;;-0.20;99.90;;;;;;5076139;28;20110;-70
2021/01/20 00:45:30;;;;;;;3.95;3.22;;;-0.20;99.90;;;;;;5095265;28;20028;-69
2021/01/20 00:47:56;;;;;;;4.47;3.05;;;-0.20;99.90;;;;;;5095484;28;20478;-70
2021/01/20 00:50:22;;;;;;;6.25;3.40;;;-0.10;99.90;;;;;;5095099;28;20050;-69
2021/01/20 00:52:47;;;;;;;4.55;3.60;;;-0.20;99.90;;;;;;5094534;28;20038;-70
2021/01/20 00:55:14;;;;;;;3.92;3.30;;;-0.10;99.90;;;;;;5094614;28;20019;-69
2021/01/20 00:57:40;;;;;;;5.47;4.15;;;-0.20;99.90;;;;;;5094899;28;20050;-69
2021/01/20 01:00:07;;;;;;;4.05;3.20;;;-0.20;99.90;;;;;;5094703;28;20026;-69
2021/01/20 01:02:35;;;;;;;7.35;3.80;;;-0.20;99.90;;;;;;5076756;28;20035;-68
2021/01/20 01:05:02;;;;;;;4.43;3.45;;;-0.20;99.90;;;;;;5094928;28;20542;-68
2021/01/20 01:07:28;;;;;;;4.65;3.78;;;-0.20;99.90;;;;;;5095097;28;20069;-69
2021/01/20 01:09:53;;;;;;;5.32;3.80;;;-0.20;99.90;;;;;;5094552;28;20023;-68
2021/01/20 01:12:19;;;;;;;4.07;3.15;;;-0.10;99.90;;;;;;5095002;28;20028;-68
2021/01/20 01:14:45;;;;;;;8.32;3.72;;;-0.20;99.90;;;;;;5094015;28;20027;-69
2021/01/20 01:17:10;;;;;;;6.38;3.60;;;-0.30;99.90;;;;;;5094786;28;20078;-70
2021/01/20 01:19:36;;;;;;;4.85;3.67;;;-0.30;99.90;;;;;;5094690;28;20371;-69
2021/01/20 01:22:01;;;;;;;5.90;3.83;;;-0.30;99.90;;;;;;5097983;28;20054;-68
2021/01/20 01:24:27;;;;;;;5.55;3.72;;;-0.30;99.90;;;;;;5098307;28;20116;-69
2021/01/20 01:26:53;;;;;;;5.63;4.53;;;-0.30;99.90;;;;;;5101477;28;20057;-69
2021/01/20 01:29:18;;;;;;;6.90;4.10;;;-0.30;99.90;;;;;;5101787;28;20046;-68
2021/01/20 01:31:44;;;;;;;5.35;4.53;;;-0.30;99.90;;;;;;5113195;28;20020;-70
2021/01/20 01:34:09;;;;;;;7.38;4.15;;;-0.30;99.90;;;;;;5113211;28;20030;-69
2021/01/20 01:36:35;;;;;;;7.35;4.75;;;-0.30;99.90;;;;;;5101853;28;20059;-69
2021/01/20 01:39:01;;;;;;;8.43;4.38;;;-0.40;99.90;;;;;;5073176;28;20052;-69
2021/01/20 01:41:27;;;;;;;7.32;4.82;;;-0.30;99.90;;;;;;5054265;28;20121;-70
2021/01/20 01:43:53;;;;;;;5.75;4.63;;;-0.30;99.90;;;;;;5059990;28;20028;-71
2021/01/20 01:46:19;;;;;;;5.50;4.45;;;-0.30;99.90;;;;;;5093815;28;20031;-69
2021/01/20 01:48:44;;;;;;;7.43;4.32;;;-0.40;99.90;;;;;;5093766;28;20497;-69
2021/01/20 01:51:10;;;;;;;6.93;4.47;;;-0.40;99.90;;;;;;5093649;28;20028;-69
2021/01/20 01:53:36;;;;;;;6.60;4.00;;;-0.40;99.90;;;;;;5092990;28;20096;-69
2021/01/20 01:56:01;;;;;;;6.28;3.97;;;-0.40;99.90;;;;;;5093652;28;20478;-71
2021/01/20 01:58:27;;;;;;;6.35;4.07;;;-0.40;99.90;;;;;;5093755;28;20035;-70
2021/01/20 02:00:55;;;;;;;5.57;4.07;;;-0.50;99.90;;;;;;5075757;28;20039;-70
2021/01/20 02:03:21;;;;;;;6.13;4.55;;;-0.40;99.90;;;;;;5093312;28;20028;-68
2021/01/20 02:05:47;;;;;;;6.10;4.60;;;-0.50;99.90;;;;;;5093355;28;20047;-71
2021/01/20 02:08:13;;;;;;;7.45;4.88;;;-0.50;99.90;;;;;;5093362;28;20486;-69
2021/01/20 02:10:39;;;;;;;6.20;4.45;;;-0.50;99.90;;;;;;5093536;28;20107;-71
2021/01/20 02:13:27;;;;;;;7.63;4.93;;;-0.50;99.90;;;;;;5092649;28;20091;-70
2021/01/20 02:16:16;;;;;;;6.38;4.57;;;-0.50;99.90;;;;;;5075813;28;20024;-72
2021/01/20 02:18:44;;;;;;;5.78;4.45;;;-0.50;99.90;;;;;;5073039;28;20032;-70
2021/01/20 02:21:44;;;;;;;5.68;4.47;;;-0.50;99.90;;;;;;5073231;28;20515;-71
2021/01/20 02:24:13;;;;;;;6.22;4.50;;;-0.50;99.90;;;;;;5052282;28;20068;-71
2021/01/20 02:26:53;;;;;;;8.60;4.68;;;-0.50;99.90;;;;;;5053100;28;20028;-70
2021/01/20 02:29:37;;;;;;;8.30;5.15;;;-0.50;99.90;;;;;;5034716;28;20013;-70
2021/01/20 02:32:06;;;;;;;6.68;4.60;;;-0.60;99.90;;;;;;5054016;28;20021;-69
2021/01/20 02:34:34;;;;;;;7.20;5.00;;;-0.60;99.90;;;;;;5051437;28;20020;-67
2021/01/20 02:37:02;;;;;;;6.65;4.63;;;-0.60;99.90;;;;;;5052247;28;20558;-69
2021/01/20 02:39:29;;;;;;;5.75;4.43;;;-0.60;99.90;;;;;;5069123;28;20036;-69
2021/01/20 02:42:03;;;;;;;5.75;4.53;;;-0.60;99.90;;;;;;5092523;28;20032;-69
2021/01/20 02:44:29;;;;;;;6.18;5.00;;;-0.70;99.90;;;;;;5091193;28;20622;-68
2021/01/20 02:46:55;;;;;;;5.18;4.25;;;-0.70;99.90;;;;;;5091807;28;20081;-68
2021/01/20 02:49:20;;;;;;;6.47;4.55;;;-0.70;99.90;;;;;;5091958;28;20020;-69
2021/01/20 02:51:55;;;;;;;7.57;4.78;;;-0.70;99.90;;;;;;5106553;28;20080;-68
2021/01/20 02:54:23;;;;;;;7.82;4.95;;;-0.70;99.90;;;;;;5101074;28;20475;-69
2021/01/20 02:56:51;;;;;;;7.20;5.10;;;-0.80;99.90;;;;;;5091475;28;20082;-68
2021/01/20 02:59:21;;;;;;;6.85;4.90;;;-0.70;99.90;;;;;;5091354;28;20120;-69
2021/01/20 03:01:52;;;;;;;7.10;5.28;;;-0.70;99.90;;;;;;5092208;28;20078;-68
2021/01/20 03:04:19;;;;;;;9.30;5.13;;;-0.80;99.90;;;;;;5091635;28;20028;-69
2021/01/20 03:06:49;;;;;;;6.80;4.88;;;-0.70;99.90;;;;;;5073953;28;20509;-69
2021/01/20 03:09:15;;;;;;;8.73;4.63;;;-0.80;99.90;;;;;;5091936;28;20020;-69
2021/01/20 03:11:52;;;;;;;6.20;4.78;;;-0.80;99.90;;;;;;5074221;28;20023;-68
2021/01/20 03:14:20;;;;;;;7.15;4.95;;;-0.80;99.90;;;;;;5091565;28;20050;-68
2021/01/20 03:16:46;;;;;;;8.48;5.10;;;-0.80;99.90;;;;;;5092142;28;20032;-69
2021/01/20 03:19:12;;;;;;;6.28;5.00;;;-0.80;99.90;;;;;;5092418;28;20028;-70
2021/01/20 03:21:37;;;;;;;6.18;4.97;;;-0.80;99.90;;;;;;5092409;28;20441;-69
2021/01/20 03:24:03;;;;;;;5.10;4.00;;;-0.90;99.90;;;;;;5090500;28;20108;-70
2021/01/20 03:26:29;;;;;;;6.05;4.68;;;-0.90;99.90;;;;;;5092226;28;20059;-69
2021/01/20 03:28:54;;;;;;;6.20;4.75;;;-0.90;99.90;;;;;;5092207;28;20073;-70
2021/01/20 03:31:20;;;;;;;6.97;4.63;;;-1.00;99.90;;;;;;5091991;28;20432;-69
2021/01/20 03:33:46;;;;;;;7.97;4.60;;;-1.00;99.90;;;;;;5091423;28;20073;-70
2021/01/20 03:36:11;;;;;;;6.70;4.60;;;-0.90;99.90;;;;;;5092017;28;20580;-69
2021/01/20 03:38:37;;;;;;;8.45;4.45;;;-1.00;99.90;;;;;;5091922;28;20039;-68
2021/01/20 03:41:03;;;;;;;6.40;4.53;;;-1.00;99.90;;;;;;5091912;28;20023;-70
2021/01/20 03:43:28;;;;;;;7.82;4.28;;;-1.00;99.90;;;;;;5091236;28;20028;-69
2021/01/20 03:45:55;;;;;;;5.75;4.32;;;-1.00;99.90;;;;;;5091343;28;20424;-70
2021/01/20 03:48:21;;;;;;;6.50;4.50;;;-1.00;99.90;;;;;;5091899;28;20032;-69
2021/01/20 03:50:46;;;;;;;7.13;4.70;;;-1.00;99.90;;;;;;5091713;28;20027;-70
2021/01/20 03:53:12;;;;;;;5.22;3.97;;;-1.00;99.90;;;;;;5091322;28;20099;-69
2021/01/20 03:55:37;;;;;;;6.40;4.57;;;-1.00;99.90;;;;;;5091362;28;20036;-69
2021/01/20 03:58:03;;;;;;;8.85;4.28;;;-1.00;99.90;;;;;;5090272;28;20483;-70
2021/01/20 04:00:29;;;;;;;6.93;4.72;;;-1.00;99.90;;;;;;5091507;28;20044;-69
2021/01/20 04:02:54;;;;;;;7.40;4.40;;;-1.10;99.90;;;;;;5091273;28;20028;-68
2021/01/20 04:05:20;;;;;;;5.40;4.07;;;-1.10;99.90;;;;;;5091849;28;20024;-67
2021/01/20 04:07:46;;;;;;;7.32;4.38;;;-1.10;99.90;;;;;;5091470;28;20474;-69
2021/01/20 04:10:12;;;;;;;5.97;4.32;;;-1.00;99.90;;;;;;5091167;28;20024;-69
2021/01/20 04:12:39;;;;;;;4.47;3.78;;;-1.10;99.90;;;;;;5091046;28;20095;-68
2021/01/20 04:15:06;;;;;;;5.53;3.80;;;-1.10;99.90;;;;;;5091252;28;20046;-69
2021/01/20 04:17:32;;;;;;;4.53;3.75;;;-1.10;99.90;;;;;;5091155;28;20463;-69
2021/01/20 04:19:58;;;;;;;6.85;4.20;;;-1.00;99.90;;;;;;5072974;28;20119;-70
2021/01/20 04:22:24;;;;;;;4.50;3.92;;;-1.00;99.90;;;;;;5091439;28;20020;-69
2021/01/20 04:24:49;;;;;;;6.78;3.60;;;-1.00;99.90;;;;;;5090395;28;20111;-69
2021/01/20 04:27:15;;;;;;;5.28;3.47;;;-1.00;99.90;;;;;;5091495;28;20025;-69
2021/01/20 04:29:41;;;;;;;4.72;3.75;;;-0.90;99.90;;;;;;5090177;28;20016;-69
2021/01/20 04:32:07;;;;;;;3.28;2.97;;;-0.90;99.90;;;;;;5091174;28;20024;-68
2021/01/20 04:34:32;;;;;;;4.60;3.60;;;-0.90;99.90;;;;;;5090791;28;20463;-69
2021/01/20 04:36:58;;;;;;;6.43;4.03;;;-0.90;99.90;;;;;;5091131;28;20084;-68
2021/01/20 04:39:24;;;;;;;5.05;3.38;;;-0.90;99.90;;;;;;5091276;28;20051;-69
2021/01/20 04:41:50;;;;;;;5.38;3.10;;;-0.80;99.90;;;;;;5091258;28;20046;-69
2021/01/20 04:44:16;;;;;;;5.00;3.40;;;-0.80;99.90;;;;;;5091718;28;20030;-70
2021/01/20 04:46:45;;;;;;;4.35;3.47;;;-0.80;99.90;;;;;;5089866;28;20031;-68
2021/01/20 04:49:14;;;;;;;5.22;3.60;;;-0.80;99.90;;;;;;5091163;28;20027;-68
2021/01/20 04:51:44;;;;;;;7.00;3.83;;;-0.70;99.90;;;;;;5090904;28;20020;-70
2021/01/20 04:54:11;;;;;;;5.05;3.65;;;-0.70;99.90;;;;;;5090528;28;20028;-68
2021/01/20 04:56:38;;;;;;;5.10;3.53;;;-0.70;99.90;;;;;;5091174;28;20028;-68
2021/01/20 04:59:05;;;;;;;6.93;3.92;;;-0.80;99.90;;;;;;5092817;28;20073;-69
2021/01/20 05:01:32;;;;;;;6.70;3.95;;;-0.80;99.90;;;;;;5094485;28;20039;-69
2021/01/20 05:04:02;;;;;;;7.78;4.43;;;-0.80;99.90;;;;;;5093756;28;20052;-68
2021/01/20 05:06:29;;;;;;;4.72;3.47;;;-0.70;99.90;;;;;;5094451;28;20437;-69
2021/01/20 05:08:55;;;;;;;5.22;3.88;;;-0.70;99.90;;;;;;5093226;28;20470;-69
2021/01/20 05:11:36;;;;;;;6.65;4.18;;;-0.70;99.90;;;;;;5094550;28;20032;-68
2021/01/20 05:14:15;;;;;;;7.32;4.35;;;-0.60;99.90;;;;;;5094222;28;20020;-69
2021/01/20 05:16:52;;;;;;;5.05;3.83;;;-0.60;99.90;;;;;;5094435;28;20085;-68
2021/01/20 05:19:39;;;;;;;7.07;4.90;;;-0.50;99.90;;;;;;5093127;28;20085;-69
2021/01/20 05:22:08;;;;;;;7.57;5.38;;;-0.50;99.90;;;;;;5094196;28;20031;-69
2021/01/20 05:24:35;;;;;;;9.20;6.18;;;-0.50;99.90;;;;;;5083297;28;20024;-69
2021/01/20 05:27:02;;;;;;;15.80;9.73;;;-0.50;99.90;;;;;;5074164;28;20073;-68
2021/01/20 05:29:28;;;;;;;12.63;9.02;;;-0.40;99.90;;;;;;5076469;28;20025;-69
2021/01/20 05:31:54;;;;;;;11.20;8.70;;;-0.20;99.90;;;;;;5082817;28;20028;-69
2021/01/20 05:34:32;;;;;;;14.07;9.07;;;-0.20;99.90;;;;;;5074178;28;20028;-69
2021/01/20 05:37:04;;;;;;;12.10;8.32;;;-0.20;99.90;;;;;;5056416;28;20021;-68
2021/01/20 05:39:31;;;;;;;10.05;7.47;;;-0.10;99.90;;;;;;5074591;28;20024;-69
2021/01/20 05:42:08;;;;;;;11.32;7.22;;;-0.10;99.90;;;;;;5078493;28;20029;-67
2021/01/20 05:44:34;;;;;;;10.98;7.65;;;-0.10;99.90;;;;;;5091186;28;20481;-68
2021/01/20 05:47:11;;;;;;;11.98;6.60;;;-0.10;99.90;;;;;;5097161;28;20016;-67
2021/01/20 05:49:36;;;;;;;12.48;7.57;;;-0.10;99.90;;;;;;5097704;28;20020;-69
2021/01/20 05:52:03;;;;;;;9.88;6.32;;;0.00;99.90;;;;;;5097632;28;20024;-69
2021/01/20 05:54:35;;;;;;;9.07;6.10;;;-0.10;99.90;;;;;;5096670;28;20080;-69
2021/01/20 05:57:13;;;;;;;7.95;5.78;;;-0.10;99.90;;;;;;5096851;28;20581;-69
2021/01/20 05:59:39;;;;;;;10.10;6.38;;;-0.10;99.90;;;;;;5081961;28;20533;-69
2021/01/20 06:02:04;;;;;;;10.38;7.22;;;0.00;99.90;;;;;;5075224;28;20482;-69
2021/01/20 06:04:34;;;;;;;9.32;5.95;;;0.10;99.90;;;;;;5074203;28;20041;-69
2021/01/20 06:07:08;;;;;;;9.30;6.07;;;0.00;99.90;;;;;;5075060;28;20024;-72
2021/01/20 06:09:36;;;;;;;9.80;5.97;;;0.00;99.90;;;;;;5062537;28;20028;-71
2021/01/20 06:12:03;;;;;;;8.07;6.22;;;0.00;99.90;;;;;;5065089;28;20070;-71
2021/01/20 06:14:29;;;;;;;11.05;6.50;;;0.10;99.90;;;;;;5063709;28;20013;-69
2021/01/20 06:17:09;;;;;;;8.98;6.28;;;0.00;99.90;;;;;;5073305;28;20441;-66
2021/01/20 06:19:37;;;;;;;7.78;5.55;;;0.10;99.90;;;;;;5072946;28;20119;-68
2021/01/20 06:22:04;;;;;;;9.90;5.78;;;0.10;99.90;;;;;;5071380;28;20031;-68
2021/01/20 06:24:38;;;;;;;7.65;6.20;;;0.20;99.90;;;;;;5052512;28;20570;-68
2021/01/20 06:27:13;;;;;;;9.07;6.25;;;0.20;99.90;;;;;;5044833;28;20032;-68
2021/01/20 06:29:44;;;;;;;8.18;5.72;;;0.20;99.90;;;;;;5072220;28;20427;-68
2021/01/20 06:32:21;;;;;;;8.23;5.90;;;0.20;99.90;;;;;;5072362;28;20354;-68
2021/01/20 06:34:54;;;;;;;9.15;5.68;;;0.20;99.90;;;;;;5071137;28;20263;-68
2021/01/20 06:37:42;;;;;;;6.53;4.88;;;0.20;99.90;;;;;;5072517;28;20082;-70
2021/01/20 06:40:34;;;;;;;9.25;5.88;;;0.20;99.90;;;;;;5072190;28;20064;-70
2021/01/20 06:42:59;;;;;;;8.82;5.70;;;0.20;99.90;;;;;;5067471;28;20059;-71
2021/01/20 06:45:26;;;;;;;9.07;5.50;;;0.30;99.90;;;;;;5074305;28;20040;-73
2021/01/20 06:48:01;;;;;;;9.13;5.55;;;0.40;99.90;;;;;;5072978;28;20017;-70
2021/01/20 06:50:28;;;;;;;6.35;5.05;;;0.40;99.90;;;;;;5073995;28;20020;-69
2021/01/20 06:53:04;;;;;;;8.95;5.72;;;0.40;99.90;;;;;;5091514;28;20024;-69
2021/01/20 06:55:32;;;;;;;8.68;6.38;;;0.60;99.90;;;;;;5092020;28;20024;-70
2021/01/20 06:58:25;;;;;;;10.18;5.50;;;0.50;99.90;;;;;;5074858;28;20028;-68
2021/01/20 07:01:00;;;;;;;7.20;5.50;;;0.50;99.90;;;;;;5068819;28;20097;-68
2021/01/20 07:03:46;;;;;;;6.68;5.25;;;0.50;99.90;;;;;;5062138;28;20388;-68
2021/01/20 07:06:30;;;;;;;11.40;6.50;;;0.50;99.90;;;;;;5051337;28;20154;-68
2021/01/20 07:08:56;;;;;;;8.57;5.40;;;0.50;99.90;;;;;;5051148;28;20487;-67
2021/01/20 07:11:21;;;;;;;7.60;6.40;;;0.60;99.90;;;;;;5051261;28;20563;-67
2021/01/20 07:13:47;;;;;;;12.55;6.53;;;0.50;99.90;;;;;;5051510;28;20147;-67
2021/01/20 07:16:16;;;;;;;7.45;5.88;;;0.50;99.90;;;;;;5051921;28;20048;-67
2021/01/20 07:18:45;;;;;;;7.90;6.07;;;0.60;99.90;;;;;;5051920;28;20028;-75
2021/01/20 07:21:12;;;;;;;11.25;6.50;;;0.50;99.90;;;;;;5069786;28;20105;-75
2021/01/20 07:23:37;;;;;;;14.40;8.95;;;0.60;99.90;;;;;;5074706;28;20367;-76
2021/01/20 07:26:04;;;;;;;17.08;8.35;;;0.60;99.90;;;;;;5065887;28;20035;-76
2021/01/20 07:28:31;;;;;;;11.52;7.25;;;0.70;99.90;;;;;;5050072;28;20111;-76
2021/01/20 07:31:10;;;;;;;11.32;6.88;;;0.70;99.90;;;;;;5051390;28;20032;-75
2021/01/20 07:33:36;;;;;;;10.45;5.95;;;0.70;99.90;;;;;;5033299;28;20094;-75
2021/01/20 07:36:10;;;;;;;11.65;7.40;;;0.70;99.90;;;;;;5051573;28;20025;-69
2021/01/20 07:38:36;;;;;;;15.18;8.63;;;0.70;99.90;;;;;;5049895;28;20422;-70
2021/01/20 07:41:22;;;;;;;13.85;8.43;;;0.90;99.90;;;;;;5061304;28;20582;-69
2021/01/20 07:43:52;;;;;;;14.35;9.95;;;0.80;99.90;;;;;;5063791;28;20123;-68
2021/01/20 07:46:22;;;;;;;13.80;8.52;;;0.90;99.90;;;;;;5061945;28;20506;-69
2021/01/20 07:48:48;;;;;;;13.45;8.07;;;1.00;99.90;;;;;;5051234;28;20103;-68
2021/01/20 07:51:19;;;;;;;12.57;8.00;;;0.90;99.90;;;;;;5050538;28;20107;-70
2021/01/20 07:54:01;;;;;;;13.05;8.77;;;0.90;99.90;;;;;;5050475;28;20393;-71
2021/01/20 07:56:28;;;;;;;17.17;10.35;;;1.00;99.90;;;;;;5085927;28;20051;-70
2021/01/20 07:58:54;;;;;;;33.38;17.80;;;1.10;99.90;;;;;;5062255;28;20104;-69
2021/01/20 08:01:28;;;;;;;22.60;13.77;;;1.20;99.90;;;;;;5070963;28;20033;-70
2021/01/20 08:03:55;;;;;;;23.65;13.40;;;1.20;99.90;;;;;;5052574;28;20067;-71
2021/01/20 08:06:21;;;;;;;17.00;11.35;;;1.20;99.90;;;;;;5070707;28;20115;-70
2021/01/20 08:08:55;;;;;;;23.15;12.93;;;1.30;99.90;;;;;;5071123;28;20462;-70
2021/01/20 08:11:24;;;;;;;18.45;12.15;;;1.40;99.90;;;;;;5070837;28;20082;-70
2021/01/20 08:13:51;;;;;;;19.75;12.82;;;1.40;99.90;;;;;;5070574;28;20013;-69
2021/01/20 08:16:18;;;;;;;20.17;12.75;;;1.60;99.90;;;;;;5070963;28;20032;-69
2021/01/20 08:18:45;;;;;;;18.77;12.15;;;1.70;99.90;;;;;;5071015;28;20033;-70
2021/01/20 08:21:11;;;;;;;19.08;11.02;;;1.60;99.90;;;;;;5070943;28;20020;-70
2021/01/20 08:23:51;;;;;;;17.95;10.32;;;1.80;99.90;;;;;;5079568;28;20051;-69
2021/01/20 08:26:23;;;;;;;11.95;8.50;;;1.90;99.90;;;;;;5087162;28;20024;-70
2021/01/20 08:29:11;;;;;;;9.80;7.03;;;2.00;99.90;;;;;;5091243;28;20017;-72
2021/01/20 08:31:41;;;;;;;15.45;9.20;;;2.10;99.90;;;;;;5090702;28;20027;-72
2021/01/20 08:34:21;;;;;;;17.92;10.18;;;2.10;99.90;;;;;;5092180;28;20103;-71
2021/01/20 08:37:00;;;;;;;17.48;11.55;;;2.20;99.90;;;;;;5074582;28;20383;-70
2021/01/20 08:39:26;;;;;;;13.25;9.82;;;2.30;99.90;;;;;;5074623;28;20485;-69
2021/01/20 08:42:18;;;;;;;12.18;8.75;;;2.40;99.90;;;;;;5074307;28;20108;-70
2021/01/20 08:45:07;;;;;;;14.20;8.10;;;2.40;99.90;;;;;;5073681;28;20371;-70
2021/01/20 08:47:55;;;;;;;12.88;8.73;;;2.40;99.90;;;;;;5074259;28;20287;-70
2021/01/20 08:50:33;;;;;;;12.65;8.00;;;2.50;99.90;;;;;;5060343;28;20479;-70
2021/01/20 08:53:02;;;;;;;13.57;8.23;;;2.50;99.90;;;;;;5073878;28;20024;-70
2021/01/20 08:55:39;;;;;;;11.63;8.18;;;2.60;99.90;;;;;;5074099;28;20039;-70
2021/01/20 08:58:19;;;;;;;9.02;6.90;;;2.60;99.90;;;;;;5091669;28;20027;-70
2021/01/20 09:00:46;;;;;;;19.60;10.85;;;2.70;99.90;;;;;;5094029;28;20441;-71
2021/01/20 09:03:17;;;;;;;20.45;10.38;;;2.80;99.90;;;;;;5093719;28;20024;-71
2021/01/20 09:05:43;;;;;;;17.25;9.15;;;2.90;99.90;;;;;;5094058;28;20056;-71
2021/01/20 09:08:09;;;;;;;14.57;7.57;;;2.80;99.90;;;;;;5094491;28;20107;-71
2021/01/20 09:10:35;;;;;;;10.15;7.30;;;2.90;99.90;;;;;;5094331;28;20118;-71
2021/01/20 09:13:01;;;;;;;9.63;6.93;;;3.00;99.90;;;;;;5093608;28;20027;-70
2021/01/20 09:15:27;;;;;;;9.15;6.60;;;3.00;99.90;;;;;;5093863;28;20024;-71
2021/01/20 09:17:52;;;;;;;8.77;6.55;;;3.10;99.90;;;;;;5093885;28;20513;-71
2021/01/20 09:20:18;;;;;;;10.80;7.75;;;3.10;99.90;;;;;;5093898;28;20027;-71
2021/01/20 09:22:44;;;;;;;10.05;7.40;;;3.10;99.90;;;;;;5093568;28;20028;-72
2021/01/20 09:25:10;;;;;;;11.02;7.50;;;3.20;99.90;;;;;;5093544;28;20616;-71
2021/01/20 09:27:36;;;;;;;24.50;14.20;;;3.30;99.90;;;;;;5094421;28;20052;-71
2021/01/20 09:30:02;;;;;;;20.98;13.05;;;3.40;99.90;;;;;;5093575;28;20055;-71
2021/01/20 09:32:29;;;;;;;16.52;11.25;;;3.40;99.90;;;;;;5075887;28;20114;-72
2021/01/20 09:34:54;;;;;;;12.63;9.10;;;3.40;99.90;;;;;;5086010;28;20115;-71
2021/01/20 09:37:20;;;;;;;11.27;7.97;;;3.40;99.90;;;;;;5075582;28;20063;-71
2021/01/20 09:39:47;;;;;;;12.85;8.23;;;3.40;99.90;;;;;;5073595;28;20709;-70
2021/01/20 09:42:13;;;;;;;14.95;8.68;;;3.60;99.90;;;;;;5073354;28;20029;-70
2021/01/20 09:44:39;;;;;;;15.57;9.80;;;3.60;99.90;;;;;;5072669;28;20039;-70
2021/01/20 09:47:04;;;;;;;16.00;8.95;;;3.80;99.90;;;;;;5055815;28;20127;-70
2021/01/20 09:49:30;;;;;;;12.70;9.27;;;3.80;99.90;;;;;;5073822;28;20017;-71
2021/01/20 09:51:56;;;;;;;11.60;7.20;;;3.90;99.90;;;;;;5074484;28;20024;-70
2021/01/20 09:54:21;;;;;;;10.18;7.70;;;4.10;99.90;;;;;;5073335;28;20028;-71
2021/01/20 09:56:47;;;;;;;12.07;7.75;;;4.20;99.90;;;;;;5079157;28;20039;-70
2021/01/20 09:59:13;;;;;;;11.10;7.03;;;3.90;99.90;;;;;;5094045;28;20024;-71
2021/01/20 10:01:38;;;;;;;8.50;5.90;;;4.00;99.90;;;;;;5095891;28;20032;-70
2021/01/20 10:04:04;;;;;;;8.73;5.65;;;4.10;99.90;;;;;;5076452;28;20039;-72
2021/01/20 10:06:30;;;;;;;9.10;6.07;;;4.30;99.90;;;;;;5073269;28;20150;-70
2021/01/20 10:08:56;;;;;;;8.88;6.03;;;4.60;99.90;;;;;;5073169;28;20115;-69
2021/01/20 10:11:21;;;;;;;8.70;6.18;;;4.80;99.90;;;;;;5073354;28;20081;-70
2021/01/20 10:13:47;;;;;;;9.68;5.95;;;5.10;99.90;;;;;;5072542;28;20429;-70
2021/01/20 10:16:13;;;;;;;9.82;6.82;;;5.20;99.90;;;;;;5073121;28;20031;-70
2021/01/20 10:18:38;;;;;;;11.52;6.28;;;5.30;99.90;;;;;;5072993;28;20027;-70
2021/01/20 10:21:04;;;;;;;8.40;6.10;;;5.40;99.90;;;;;;5072836;28;20032;-70
2021/01/20 10:23:30;;;;;;;8.55;6.70;;;5.50;99.90;;;;;;5072575;28;20100;-69
2021/01/20 10:25:55;;;;;;;9.48;6.63;;;5.90;99.90;;;;;;5073086;28;20056;-70
2021/01/20 10:28:21;;;;;;;11.45;6.70;;;5.90;99.90;;;;;;5092646;28;20039;-70
2021/01/20 10:30:47;;;;;;;10.60;6.78;;;6.10;99.90;;;;;;5092636;28;20020;-69
2021/01/20 10:33:12;;;;;;;7.38;5.57;;;6.30;99.90;;;;;;5092347;28;20389;-68
2021/01/20 10:35:40;;;;;;;11.15;6.07;;;6.50;99.90;;;;;;5061590;28;20394;-73
2021/01/20 10:38:05;;;;;;;7.00;5.65;;;7.00;99.90;;;;;;5072792;28;20017;-72
2021/01/20 10:40:31;;;;;;;7.68;5.38;;;7.50;99.90;;;;;;5054712;28;20035;-72
2021/01/20 10:42:56;;;;;;;8.82;5.00;;;7.80;99.90;;;;;;5072092;28;20033;-71
2021/01/20 10:45:22;;;;;;;8.48;5.00;;;7.90;99.90;;;;;;5073068;28;20059;-71
2021/01/20 10:47:48;;;;;;;10.43;5.70;;;7.90;99.90;;;;;;5073390;28;20060;-72
2021/01/20 10:50:14;;;;;;;6.72;4.47;;;7.90;99.90;;;;;;5073113;28;20027;-72
2021/01/20 10:52:39;;;;;;;9.77;5.10;;;8.00;99.90;;;;;;5073881;28;20032;-72
2021/01/20 10:55:05;;;;;;;8.18;5.15;;;8.00;99.90;;;;;;5073320;28;20031;-72
2021/01/20 10:57:31;;;;;;;12.50;9.63;;;7.90;99.90;;;;;;5085172;28;20024;-72
2021/01/20 10:59:57;;;;;;;10.82;9.65;;;8.10;99.90;;;;;;5094063;28;20020;-70
2021/01/20 11:02:22;;;;;;;7.90;7.10;;;7.90;99.90;;;;;;5093221;28;20031;-73
2021/01/20 11:04:48;;;;;;;6.50;5.00;;;8.00;99.90;;;;;;5092342;28;20057;-70
2021/01/20 11:07:15;;;;;;;9.10;6.25;;;8.00;99.90;;;;;;5093358;28;20393;-72
2021/01/20 11:09:42;;;;;;;11.27;6.35;;;7.90;99.90;;;;;;5074815;28;20024;-70
2021/01/20 11:12:08;;;;;;;9.57;7.57;;;7.70;99.90;;;;;;5092786;28;20434;-69
2021/01/20 11:14:34;;;;;;;10.00;7.05;;;7.30;99.90;;;;;;5091726;28;20020;-69
2021/01/20 11:17:00;;;;;;;11.80;7.45;;;7.10;99.90;;;;;;5092713;28;20031;-67
2021/01/20 11:19:26;;;;;;;10.02;7.18;;;7.10;99.90;;;;;;5093033;28;20107;-68
2021/01/20 11:21:52;;;;;;;10.48;7.38;;;6.80;99.90;;;;;;5092263;28;20059;-70
2021/01/20 11:24:18;;;;;;;12.13;7.75;;;6.70;99.90;;;;;;5073197;28;20080;-70
2021/01/20 11:26:47;;;;;;;11.32;7.75;;;6.60;99.90;;;;;;5091815;28;20028;-70
2021/01/20 11:29:14;;;;;;;11.43;7.38;;;6.60;99.90;;;;;;5092104;28;20024;-71
2021/01/20 11:31:39;;;;;;;11.93;8.38;;;6.60;99.90;;;;;;5092191;28;20501;-71
2021/01/20 11:34:05;;;;;;;14.18;9.32;;;6.80;99.90;;;;;;5091689;28;20028;-72
2021/01/20 11:36:31;;;;;;;12.85;8.30;;;6.90;99.90;;;;;;5091664;28;20058;-71
2021/01/20 11:38:56;;;;;;;16.00;9.25;;;7.00;99.90;;;;;;5092167;28;20118;-72
2021/01/20 11:41:22;;;;;;;15.88;8.52;;;7.00;99.90;;;;;;5074019;28;20368;-73
2021/01/20 11:43:48;;;;;;;13.15;8.85;;;7.10;99.90;;;;;;5091826;28;20042;-71
2021/01/20 11:46:14;;;;;;;14.07;8.55;;;7.20;99.90;;;;;;5092201;28;20028;-72
2021/01/20 11:48:40;;;;;;;13.63;9.48;;;7.00;99.90;;;;;;5091933;28;20016;-72
2021/01/20 11:51:06;;;;;;;13.02;8.65;;;7.40;99.90;;;;;;5092458;28;20082;-70
2021/01/20 11:53:32;;;;;;;11.18;8.50;;;7.40;99.90;;;;;;5091808;28;20028;-69
2021/01/20 11:55:57;;;;;;;13.95;9.35;;;7.70;99.90;;;;;;5091816;28;20547;-72
2021/01/20 11:58:23;;;;;;;14.00;9.68;;;7.70;99.90;;;;;;5092191;28;20024;-72
2021/01/20 12:00:48;;;;;;;14.63;8.85;;;8.20;99.90;;;;;;5091518;28;20031;-72
2021/01/20 12:03:15;;;;;;;14.73;9.73;;;8.50;99.90;;;;;;5091866;28;20020;-71
2021/01/20 12:05:41;;;;;;;15.13;8.88;;;8.60;99.90;;;;;;5091373;28;20028;-70
2021/01/20 12:08:07;;;;;;;15.65;10.10;;;8.90;99.90;;;;;;5095054;28;20024;-70
2021/01/20 12:10:33;;;;;;;12.25;9.98;;;8.50;99.90;;;;;;5096525;28;20111;-72
2021/01/20 12:12:58;;;;;;;17.35;10.50;;;8.40;99.90;;;;;;5095796;28;20035;-71
2021/01/20 12:15:24;;;;;;;14.60;10.07;;;8.80;99.90;;;;;;5096604;28;20028;-72
2021/01/20 12:17:50;;;;;;;16.27;9.93;;;8.80;99.90;;;;;;5096862;28;20023;-71
2021/01/20 12:20:16;;;;;;;15.57;10.20;;;9.00;99.90;;;;;;5096673;28;20552;-72
2021/01/20 12:22:41;;;;;;;17.40;10.52;;;9.20;99.90;;;;;;5097284;28;20150;-72
2021/01/20 12:25:07;;;;;;;16.65;10.57;;;9.50;99.90;;;;;;5096171;28;20038;-69
2021/01/20 12:27:33;;;;;;;16.63;10.65;;;9.60;99.90;;;;;;5096139;28;20032;-71
2021/01/20 12:29:59;;;;;;;14.82;9.60;;;9.80;99.90;;;;;;5098395;28;20390;-71
2021/01/20 12:32:26;;;;;;;15.43;9.90;;;9.70;99.90;;;;;;5099541;28;20027;-71
2021/01/20 12:34:51;;;;;;;14.27;9.60;;;9.80;99.90;;;;;;5104595;28;20016;-72
2021/01/20 12:37:17;;;;;;;16.60;9.82;;;9.60;99.90;;;;;;5094009;28;20100;-71
2021/01/20 12:39:43;;;;;;;23.00;9.90;;;9.30;99.90;;;;;;5094122;28;20032;-72
2021/01/20 12:42:09;;;;;;;15.25;9.60;;;9.10;99.90;;;;;;5095003;28;20088;-71
2021/01/20 12:44:34;;;;;;;13.05;9.05;;;9.00;99.90;;;;;;5095894;28;20047;-72
2021/01/20 12:47:00;;;;;;;13.35;8.68;;;8.90;99.90;;;;;;5076659;28;20051;-71
2021/01/20 12:49:26;;;;;;;18.95;8.93;;;9.10;99.90;;;;;;5069092;28;20050;-71
2021/01/20 12:51:52;;;;;;;14.90;8.63;;;9.20;99.90;;;;;;5076348;28;20028;-70
2021/01/20 12:54:18;;;;;;;14.27;8.65;;;8.90;99.90;;;;;;5075384;28;20469;-72